Duluth, Minnesota
Current Conditions -  °F | °C
As of 4:55 AM on Tuesday 21 Oct 2014 (Local Time) from KDLH Reporting Station
Overcast Overcast  
Wind Chill:   Ceiling: 1400
Heat Index:   Visibility: 10mi
Dew Point:   Wind: 10mph
Humidity: 80%   Direction: 110°ESE
Pressure: 30.17"   Gusts: NA
Location:  46.79°N, 92.09°W
Report Text: KDLH 210955Z 11009KT 10SM OVC014 06/03 A3017 RMK AO2 SLP228 T00610028
Loading
Personal Weather Stations






























Interactive Weather Map New forecast layout! Learn more

10-Day Weather Forecast

Advertisements
Track Severe Weather on mobile